Time;durP1;ratioP1;P1;durP2;ratioP2;P2;SDS_P1;SDS_P2;PMS_P1;PMS_P2;Temp;Humidity;BMP_temperature;BMP_pressure;BME280_temperature;BME280_humidity;BME280_pressure;Samples;Min_cycle;Max_cycle;Signal;HPM_P1;HPM_P2
2023/03/05 00:00:34;;;;;;;3.97;1.60;;;7.80;99.90;;;;;;5115182;28;20250;-76
2023/03/05 00:03:00;;;;;;;5.13;1.60;;;7.80;99.90;;;;;;5129283;27;20221;-75
2023/03/05 00:05:39;;;;;;;3.57;1.70;;;7.70;99.90;;;;;;5135498;27;20173;-75
2023/03/05 00:08:06;;;;;;;4.57;2.17;;;7.80;99.90;;;;;;5135368;27;20195;-76
2023/03/05 00:10:37;;;;;;;5.60;2.07;;;7.80;99.90;;;;;;5135481;27;20236;-75
2023/03/05 00:13:04;;;;;;;8.57;2.10;;;7.70;99.90;;;;;;5135613;27;20153;-75
2023/03/05 00:15:31;;;;;;;3.57;1.90;;;7.70;99.90;;;;;;5135549;27;20256;-75
2023/03/05 00:17:58;;;;;;;3.97;1.80;;;7.60;99.90;;;;;;5135669;27;20145;-76
2023/03/05 00:20:25;;;;;;;7.37;2.33;;;7.60;99.90;;;;;;5135219;27;20220;-75
2023/03/05 00:22:51;;;;;;;8.27;2.10;;;7.60;99.90;;;;;;5135197;27;20172;-76
2023/03/05 00:25:22;;;;;;;8.67;2.20;;;7.70;99.90;;;;;;5135289;27;20571;-76
2023/03/05 00:27:51;;;;;;;4.07;2.07;;;7.70;99.90;;;;;;5116936;27;20169;-75
2023/03/05 00:30:20;;;;;;;9.67;2.53;;;7.70;99.90;;;;;;5135278;27;20626;-76
2023/03/05 00:32:45;;;;;;;5.50;2.77;;;7.70;99.90;;;;;;5134996;27;20162;-75
2023/03/05 00:35:11;;;;;;;7.40;2.53;;;7.80;99.90;;;;;;5135141;27;20170;-75
2023/03/05 00:37:40;;;;;;;5.40;2.40;;;7.70;99.90;;;;;;5116853;27;20161;-76
2023/03/05 00:40:09;;;;;;;5.00;2.63;;;7.70;99.90;;;;;;5134660;27;20220;-76
2023/03/05 00:42:42;;;;;;;7.70;2.80;;;7.60;99.90;;;;;;5135119;27;20629;-75
2023/03/05 00:45:10;;;;;;;7.37;2.63;;;7.40;99.90;;;;;;5116640;27;20161;-76
2023/03/05 00:47:36;;;;;;;5.90;2.80;;;7.40;99.90;;;;;;5135061;27;20165;-75
2023/03/05 00:50:05;;;;;;;6.63;3.67;;;7.40;99.90;;;;;;5134843;27;20164;-75
2023/03/05 00:52:31;;;;;;;4.73;2.67;;;7.40;99.90;;;;;;5134299;27;20172;-75
2023/03/05 00:54:58;;;;;;;6.07;2.73;;;7.20;99.90;;;;;;5116348;27;20217;-74
2023/03/05 00:57:26;;;;;;;5.53;2.77;;;7.20;99.90;;;;;;5116362;27;20165;-75
2023/03/05 00:59:55;;;;;;;8.30;3.20;;;7.20;99.90;;;;;;5135223;27;20190;-75
2023/03/05 01:02:24;;;;;;;4.77;3.03;;;7.10;99.90;;;;;;5134574;27;20160;-77
2023/03/05 01:04:53;;;;;;;9.00;3.70;;;7.10;99.90;;;;;;5115531;27;20170;-76
2023/03/05 01:07:19;;;;;;;5.60;3.10;;;7.20;99.90;;;;;;5134112;27;20203;-76
2023/03/05 01:09:45;;;;;;;6.20;2.93;;;7.20;99.90;;;;;;5116511;27;20255;-76
2023/03/05 01:12:10;;;;;;;9.10;3.50;;;7.20;99.90;;;;;;5134910;27;20159;-75
2023/03/05 01:14:36;;;;;;;8.70;3.67;;;7.20;99.90;;;;;;5134624;27;20227;-76
2023/03/05 01:17:05;;;;;;;8.57;3.60;;;7.10;99.90;;;;;;5134857;27;20173;-76
2023/03/05 01:19:31;;;;;;;6.40;3.10;;;6.90;99.90;;;;;;5116154;27;20173;-76
2023/03/05 01:21:59;;;;;;;8.77;3.60;;;6.90;99.90;;;;;;5134184;27;20167;-75
2023/03/05 01:24:26;;;;;;;7.67;3.17;;;6.90;99.90;;;;;;5116252;27;20251;-75
2023/03/05 01:26:52;;;;;;;9.70;3.63;;;6.90;99.90;;;;;;5134378;27;20172;-72
2023/03/05 01:29:18;;;;;;;9.77;3.27;;;7.00;99.90;;;;;;5133885;27;20673;-72
2023/03/05 01:31:44;;;;;;;9.23;3.33;;;7.10;99.90;;;;;;5134170;27;20521;-72
2023/03/05 01:34:10;;;;;;;8.03;3.47;;;7.10;99.90;;;;;;5134458;27;20171;-73
2023/03/05 01:36:36;;;;;;;7.50;3.50;;;7.20;99.90;;;;;;5133750;27;20221;-74
2023/03/05 01:39:02;;;;;;;7.50;3.27;;;7.20;99.90;;;;;;5133840;28;20181;-73
2023/03/05 01:41:28;;;;;;;5.60;3.27;;;7.10;99.90;;;;;;5133899;28;20188;-72
2023/03/05 01:43:53;;;;;;;7.13;3.50;;;7.00;99.90;;;;;;5134361;28;20198;-72
2023/03/05 01:46:31;;;;;;;6.87;3.10;;;7.00;99.90;;;;;;5129965;28;20528;-72
2023/03/05 01:49:18;;;;;;;7.97;3.37;;;6.90;99.90;;;;;;5115527;28;20228;-73
2023/03/05 01:52:09;;;;;;;8.57;3.33;;;7.00;99.90;;;;;;5133576;28;20223;-73
2023/03/05 01:54:42;;;;;;;6.27;3.13;;;7.00;99.90;;;;;;5115329;28;20173;-73
2023/03/05 01:57:14;;;;;;;5.50;3.70;;;7.00;99.90;;;;;;5133849;28;20235;-73
2023/03/05 01:59:43;;;;;;;7.83;3.17;;;7.10;99.90;;;;;;5133904;28;20182;-74
2023/03/05 02:02:09;;;;;;;8.70;3.70;;;7.20;99.90;;;;;;5133955;28;20199;-72
2023/03/05 02:04:47;;;;;;;7.03;3.50;;;7.10;99.90;;;;;;5133790;28;20184;-72
2023/03/05 02:07:13;;;;;;;8.47;2.93;;;7.00;99.90;;;;;;5115166;28;20280;-71
2023/03/05 02:09:40;;;;;;;8.67;3.40;;;6.90;99.90;;;;;;5120125;28;20177;-71
2023/03/05 02:12:07;;;;;;;8.80;3.17;;;6.90;99.90;;;;;;5114217;28;20180;-72
2023/03/05 02:14:34;;;;;;;7.07;2.93;;;6.90;99.90;;;;;;5114042;27;20176;-74
2023/03/05 02:16:59;;;;;;;5.73;3.27;;;6.90;99.90;;;;;;5137834;27;20216;-72
2023/03/05 02:19:25;;;;;;;7.47;3.10;;;6.90;99.90;;;;;;5118698;27;20173;-73
2023/03/05 02:21:51;;;;;;;10.30;3.20;;;6.80;99.90;;;;;;5131133;27;20296;-72
2023/03/05 02:24:32;;;;;;;4.33;2.73;;;6.70;99.90;;;;;;5137661;27;20648;-73
2023/03/05 02:26:58;;;;;;;7.83;3.40;;;6.60;99.90;;;;;;5120610;27;20175;-71
2023/03/05 02:29:28;;;;;;;8.40;3.20;;;6.60;99.90;;;;;;5098829;28;20619;-72
2023/03/05 02:31:54;;;;;;;10.53;4.30;;;6.60;99.90;;;;;;5116897;28;20161;-72
2023/03/05 02:34:21;;;;;;;5.87;2.93;;;6.50;99.90;;;;;;5116774;28;20175;-72
2023/03/05 02:36:49;;;;;;;6.70;3.00;;;6.50;99.90;;;;;;5116795;28;20150;-72
2023/03/05 02:39:15;;;;;;;8.40;3.27;;;6.70;99.90;;;;;;5115612;27;20521;-72
2023/03/05 02:41:41;;;;;;;9.97;3.53;;;6.90;99.90;;;;;;5137106;27;20327;-72
2023/03/05 02:44:08;;;;;;;11.23;3.57;;;6.90;99.90;;;;;;5118659;27;20589;-71
2023/03/05 02:46:35;;;;;;;7.37;3.43;;;6.90;99.90;;;;;;5137443;27;20641;-73
2023/03/05 02:49:01;;;;;;;7.93;3.27;;;6.60;99.90;;;;;;5136906;27;20210;-72
2023/03/05 02:51:26;;;;;;;7.70;3.53;;;6.50;99.90;;;;;;5118801;27;20207;-72
2023/03/05 02:53:52;;;;;;;8.63;3.50;;;6.40;99.90;;;;;;5137278;27;20501;-73
2023/03/05 02:56:18;;;;;;;9.13;3.70;;;6.40;99.90;;;;;;5118581;27;20625;-72
2023/03/05 02:58:43;;;;;;;9.00;3.70;;;6.40;99.90;;;;;;5136687;27;20228;-72
2023/03/05 03:01:09;;;;;;;7.00;3.60;;;6.50;99.90;;;;;;5136419;27;20200;-73
2023/03/05 03:03:35;;;;;;;12.03;3.67;;;6.40;99.90;;;;;;5136630;27;20168;-72
2023/03/05 03:06:01;;;;;;;6.07;3.30;;;6.50;99.90;;;;;;5104338;28;20184;-72
2023/03/05 03:08:26;;;;;;;8.30;3.83;;;6.60;99.90;;;;;;5115930;28;20192;-72
2023/03/05 03:10:52;;;;;;;7.17;3.97;;;6.70;99.90;;;;;;5098118;28;20171;-72
2023/03/05 03:13:20;;;;;;;10.27;3.77;;;6.50;99.90;;;;;;5119527;27;20191;-72
2023/03/05 03:15:45;;;;;;;8.20;4.27;;;6.60;99.90;;;;;;5118218;27;20169;-71
2023/03/05 03:18:14;;;;;;;6.40;4.23;;;6.70;99.90;;;;;;5136431;27;20160;-73
2023/03/05 03:20:41;;;;;;;7.10;4.10;;;6.80;99.90;;;;;;5136488;27;20636;-72
2023/03/05 03:23:07;;;;;;;8.87;4.37;;;6.80;99.90;;;;;;5136577;27;20173;-72
2023/03/05 03:25:34;;;;;;;8.77;4.20;;;6.80;99.90;;;;;;5130387;27;20207;-71
2023/03/05 03:28:00;;;;;;;6.73;3.70;;;6.60;99.90;;;;;;5115219;28;20161;-72
2023/03/05 03:30:27;;;;;;;9.23;4.53;;;6.50;99.90;;;;;;5115847;28;20625;-72
2023/03/05 03:32:52;;;;;;;9.93;5.07;;;6.50;99.90;;;;;;5097177;28;20211;-72
2023/03/05 03:35:19;;;;;;;10.23;4.33;;;6.50;99.90;;;;;;5102977;27;20203;-71
2023/03/05 03:37:46;;;;;;;10.60;4.57;;;6.50;99.90;;;;;;5136245;27;20160;-71
2023/03/05 03:40:12;;;;;;;8.63;4.07;;;6.60;99.90;;;;;;5117993;27;20591;-71
2023/03/05 03:42:37;;;;;;;8.23;4.33;;;6.60;99.90;;;;;;5115487;28;20207;-71
2023/03/05 03:45:03;;;;;;;11.60;4.30;;;6.60;99.90;;;;;;5115659;28;20176;-71
2023/03/05 03:47:30;;;;;;;9.80;3.93;;;6.80;99.90;;;;;;5096897;28;20253;-72
2023/03/05 03:49:57;;;;;;;5.97;3.60;;;6.70;99.90;;;;;;5115186;28;20196;-71
2023/03/05 03:52:23;;;;;;;5.40;3.43;;;6.70;99.90;;;;;;5115532;28;20163;-72
2023/03/05 03:54:51;;;;;;;5.90;4.30;;;6.70;99.90;;;;;;5096309;28;20176;-72
2023/03/05 03:57:18;;;;;;;6.10;3.90;;;6.70;99.90;;;;;;5096842;28;20192;-72
2023/03/05 03:59:44;;;;;;;6.30;3.63;;;6.80;99.90;;;;;;5115280;28;20166;-71
2023/03/05 04:02:10;;;;;;;12.67;5.10;;;6.80;99.90;;;;;;5115014;28;20180;-71
2023/03/05 04:04:41;;;;;;;8.87;4.27;;;6.80;99.90;;;;;;5115359;27;20170;-71
2023/03/05 04:07:07;;;;;;;7.60;3.97;;;6.80;99.90;;;;;;5114869;28;20185;-71
2023/03/05 04:09:34;;;;;;;10.27;4.23;;;6.80;99.90;;;;;;5096814;28;20633;-72
2023/03/05 04:11:59;;;;;;;9.27;4.77;;;7.00;99.90;;;;;;5115298;28;20203;-71
2023/03/05 04:14:26;;;;;;;9.57;4.57;;;6.80;99.90;;;;;;5114903;28;20199;-72
2023/03/05 04:16:51;;;;;;;8.17;4.13;;;6.80;99.90;;;;;;5114603;28;20204;-71
2023/03/05 04:19:17;;;;;;;6.80;4.00;;;6.70;99.90;;;;;;5114710;28;20525;-72
2023/03/05 04:21:43;;;;;;;6.00;4.30;;;6.70;99.90;;;;;;5114888;28;20200;-72
2023/03/05 04:24:09;;;;;;;10.40;4.40;;;6.70;99.90;;;;;;5114929;28;20170;-72
2023/03/05 04:26:36;;;;;;;10.17;4.07;;;6.70;99.90;;;;;;5114566;28;20198;-71
2023/03/05 04:29:02;;;;;;;8.63;4.40;;;6.80;99.90;;;;;;5114648;28;20249;-72
2023/03/05 04:31:28;;;;;;;8.17;4.10;;;6.90;99.90;;;;;;5119031;27;20207;-72
2023/03/05 04:33:53;;;;;;;9.87;4.27;;;7.10;99.90;;;;;;5125359;27;20596;-71
2023/03/05 04:36:19;;;;;;;7.30;4.10;;;7.10;99.90;;;;;;5114450;28;20169;-73
2023/03/05 04:38:45;;;;;;;9.93;4.27;;;7.00;99.90;;;;;;5096029;28;20597;-72
2023/03/05 04:41:10;;;;;;;8.73;4.47;;;6.90;99.90;;;;;;5114248;28;20201;-72
2023/03/05 04:43:36;;;;;;;7.83;4.17;;;7.00;99.90;;;;;;5114183;28;20179;-71
2023/03/05 04:46:02;;;;;;;8.03;4.13;;;7.00;99.90;;;;;;5114424;28;20167;-73
2023/03/05 04:48:27;;;;;;;9.43;4.00;;;7.00;99.90;;;;;;5095921;28;20172;-70
2023/03/05 04:50:53;;;;;;;8.57;4.47;;;6.80;99.90;;;;;;5114351;28;20676;-70
2023/03/05 04:53:18;;;;;;;9.57;4.57;;;7.00;99.90;;;;;;5114553;28;20162;-70
2023/03/05 04:55:44;;;;;;;7.83;5.47;;;6.80;99.90;;;;;;5098810;27;20171;-70
2023/03/05 04:58:10;;;;;;;15.00;4.87;;;6.90;99.90;;;;;;5134324;27;20216;-70
2023/03/05 05:00:35;;;;;;;10.10;5.13;;;6.80;99.90;;;;;;5115142;27;20234;-73
2023/03/05 05:03:02;;;;;;;13.50;6.73;;;6.70;99.90;;;;;;5133969;27;20164;-72
2023/03/05 05:05:28;;;;;;;12.07;6.27;;;6.70;99.90;;;;;;5134153;27;20555;-71
2023/03/05 05:07:58;;;;;;;14.53;6.10;;;6.70;99.90;;;;;;5115124;27;20188;-72
2023/03/05 05:10:25;;;;;;;12.73;6.13;;;6.70;99.90;;;;;;5133318;27;20551;-72
2023/03/05 05:12:50;;;;;;;9.93;5.93;;;6.80;99.90;;;;;;5115328;27;20179;-72
2023/03/05 05:15:16;;;;;;;14.80;5.97;;;6.90;99.90;;;;;;5133223;27;20635;-71
2023/03/05 05:17:42;;;;;;;12.60;6.40;;;6.90;99.90;;;;;;5113709;27;20169;-71
2023/03/05 05:20:10;;;;;;;11.80;6.07;;;6.90;99.90;;;;;;5114566;27;20215;-72
2023/03/05 05:22:36;;;;;;;10.90;6.47;;;7.00;99.90;;;;;;5120099;27;20174;-72
2023/03/05 05:25:02;;;;;;;10.83;6.40;;;6.90;99.90;;;;;;5113074;28;20577;-71
2023/03/05 05:27:28;;;;;;;14.97;7.13;;;6.80;99.90;;;;;;5112870;28;20154;-72
2023/03/05 05:29:53;;;;;;;10.97;7.03;;;6.80;99.90;;;;;;5112892;28;20195;-71
2023/03/05 05:32:21;;;;;;;12.73;7.00;;;6.80;99.90;;;;;;5094479;28;20172;-72
2023/03/05 05:34:47;;;;;;;11.40;7.37;;;6.70;99.90;;;;;;5112934;28;20165;-72
2023/03/05 05:37:13;;;;;;;15.57;7.63;;;6.70;99.90;;;;;;5113279;28;20523;-72
2023/03/05 05:39:39;;;;;;;14.17;7.63;;;6.90;99.90;;;;;;5112995;28;20169;-72
2023/03/05 05:42:06;;;;;;;16.00;7.40;;;6.90;99.90;;;;;;5113125;28;20173;-71
2023/03/05 05:44:33;;;;;;;13.77;7.50;;;6.80;99.90;;;;;;5112798;28;20189;-72
2023/03/05 05:46:59;;;;;;;11.17;7.60;;;6.70;99.90;;;;;;5112769;28;20206;-72
2023/03/05 05:49:25;;;;;;;11.73;7.50;;;6.70;99.90;;;;;;5120834;27;20173;-71
2023/03/05 05:51:51;;;;;;;15.60;8.33;;;6.60;99.90;;;;;;5137088;27;20176;-71
2023/03/05 05:54:17;;;;;;;13.70;7.17;;;6.50;99.90;;;;;;5137856;27;20190;-70
2023/03/05 05:56:43;;;;;;;16.63;7.60;;;6.30;99.90;;;;;;5137440;27;20204;-72
2023/03/05 05:59:09;;;;;;;16.37;7.60;;;6.40;99.90;;;;;;5117473;27;20206;-71
2023/03/05 06:01:35;;;;;;;13.93;7.53;;;6.40;99.90;;;;;;5116937;28;20185;-71
2023/03/05 06:04:03;;;;;;;12.37;7.53;;;6.30;99.90;;;;;;5098661;28;20574;-71
2023/03/05 06:06:29;;;;;;;13.83;7.93;;;6.40;99.90;;;;;;5116735;28;20180;-71
2023/03/05 06:08:54;;;;;;;14.73;8.03;;;6.40;99.90;;;;;;5116757;28;20654;-71
2023/03/05 06:11:20;;;;;;;13.30;7.80;;;6.50;99.90;;;;;;5116865;28;20232;-71
2023/03/05 06:13:47;;;;;;;18.03;8.47;;;6.50;99.90;;;;;;5116877;28;20235;-71
2023/03/05 06:16:16;;;;;;;13.97;8.77;;;6.80;99.90;;;;;;5116881;28;20692;-71
2023/03/05 06:18:42;;;;;;;12.60;7.50;;;6.70;99.90;;;;;;5126524;27;20225;-71
2023/03/05 06:21:11;;;;;;;13.93;8.30;;;6.60;99.90;;;;;;5137122;27;20649;-71
2023/03/05 06:23:37;;;;;;;14.07;8.03;;;6.50;99.90;;;;;;5116775;27;20205;-71
2023/03/05 06:26:05;;;;;;;12.90;8.13;;;6.70;99.90;;;;;;5116242;28;20203;-71
2023/03/05 06:28:31;;;;;;;12.20;7.70;;;6.60;99.90;;;;;;5116394;28;20166;-71
2023/03/05 06:31:07;;;;;;;14.37;7.80;;;6.50;99.90;;;;;;5116460;28;20550;-74
2023/03/05 06:33:33;;;;;;;15.13;8.43;;;6.50;99.90;;;;;;5116252;28;20256;-74
2023/03/05 06:36:14;;;;;;;16.23;8.83;;;6.40;99.90;;;;;;5098105;28;20209;-74
2023/03/05 06:38:40;;;;;;;10.67;7.67;;;6.50;99.90;;;;;;5097973;28;20170;-73
2023/03/05 06:41:10;;;;;;;13.03;7.73;;;6.50;99.90;;;;;;5111923;27;20199;-73
2023/03/05 06:43:40;;;;;;;13.23;7.90;;;6.50;99.90;;;;;;5117260;27;20216;-74
2023/03/05 06:46:10;;;;;;;12.87;8.57;;;6.30;99.90;;;;;;5102915;28;20172;-73
2023/03/05 06:48:36;;;;;;;14.93;7.90;;;6.50;99.90;;;;;;5113213;27;20296;-74
2023/03/05 06:51:02;;;;;;;16.37;8.67;;;6.30;99.90;;;;;;5137019;27;20641;-74
2023/03/05 06:53:27;;;;;;;16.87;8.63;;;6.50;99.90;;;;;;5133179;27;20171;-74
2023/03/05 06:55:53;;;;;;;11.67;8.33;;;6.40;99.90;;;;;;5127431;27;20238;-74
2023/03/05 06:58:20;;;;;;;15.23;8.77;;;6.20;99.90;;;;;;5108601;27;20184;-76
2023/03/05 07:00:46;;;;;;;12.87;6.77;;;6.20;99.90;;;;;;5112003;27;20190;-74
2023/03/05 07:03:15;;;;;;;12.00;7.57;;;6.20;99.90;;;;;;5111526;27;20162;-75
2023/03/05 07:05:41;;;;;;;12.40;7.57;;;6.20;99.90;;;;;;5107557;27;20168;-72
2023/03/05 07:08:08;;;;;;;12.70;7.30;;;6.10;99.90;;;;;;5127593;27;20182;-72
2023/03/05 07:10:39;;;;;;;12.10;7.80;;;6.10;99.90;;;;;;5127754;27;20225;-72
2023/03/05 07:13:05;;;;;;;12.10;7.07;;;6.30;99.90;;;;;;5130447;27;20175;-72
2023/03/05 07:15:30;;;;;;;10.17;6.30;;;6.40;99.90;;;;;;5136562;27;20613;-72
2023/03/05 07:17:56;;;;;;;15.47;7.87;;;6.20;99.90;;;;;;5136194;27;20163;-71
2023/03/05 07:20:22;;;;;;;11.70;7.17;;;6.20;99.90;;;;;;5135616;27;20227;-72
2023/03/05 07:22:47;;;;;;;12.97;7.37;;;6.20;99.90;;;;;;5125111;27;20164;-73
2023/03/05 07:25:20;;;;;;;12.93;7.90;;;6.10;99.90;;;;;;5115631;28;20165;-72
2023/03/05 07:27:47;;;;;;;14.73;8.07;;;6.10;99.90;;;;;;5122468;27;20170;-72
2023/03/05 07:30:13;;;;;;;14.60;7.03;;;5.90;99.90;;;;;;5136186;27;20194;-73
2023/03/05 07:32:39;;;;;;;13.90;8.90;;;5.60;99.90;;;;;;5119506;27;20546;-72
2023/03/05 07:35:05;;;;;;;17.93;7.83;;;5.90;99.90;;;;;;5115512;28;20173;-73
2023/03/05 07:37:32;;;;;;;12.37;7.00;;;6.00;99.90;;;;;;5115682;28;20177;-72
2023/03/05 07:39:58;;;;;;;11.07;7.50;;;6.20;99.90;;;;;;5115300;28;20180;-73
2023/03/05 07:42:25;;;;;;;11.93;6.80;;;6.20;99.90;;;;;;5126405;27;20748;-71
2023/03/05 07:44:51;;;;;;;10.37;6.40;;;6.10;99.90;;;;;;5104921;27;20172;-71
2023/03/05 07:47:17;;;;;;;11.23;5.37;;;6.20;99.90;;;;;;5113682;27;20166;-72
2023/03/05 07:49:43;;;;;;;9.13;5.93;;;6.20;99.90;;;;;;5112140;27;20164;-72
2023/03/05 07:52:09;;;;;;;11.40;5.50;;;6.20;99.90;;;;;;5127440;27;20177;-72
2023/03/05 07:54:38;;;;;;;9.03;5.63;;;6.30;99.90;;;;;;5127758;27;20198;-72
2023/03/05 07:57:06;;;;;;;9.10;6.17;;;6.50;99.90;;;;;;5107546;28;20628;-72
2023/03/05 07:59:32;;;;;;;8.90;5.27;;;6.50;99.90;;;;;;5140136;27;20179;-72
2023/03/05 08:01:58;;;;;;;7.87;5.60;;;6.60;99.90;;;;;;5154279;27;20560;-72
2023/03/05 08:04:25;;;;;;;9.77;6.07;;;6.70;99.90;;;;;;5134012;27;20161;-73
2023/03/05 08:06:51;;;;;;;10.57;5.77;;;6.80;99.90;;;;;;5107374;27;20200;-73
2023/03/05 08:09:17;;;;;;;10.93;6.30;;;6.80;99.90;;;;;;5098938;28;20211;-72
2023/03/05 08:11:43;;;;;;;14.67;6.80;;;6.70;99.90;;;;;;5114820;28;20165;-73
2023/03/05 08:14:11;;;;;;;12.87;6.13;;;6.70;99.90;;;;;;5096143;28;20176;-72
2023/03/05 08:16:38;;;;;;;12.60;6.27;;;6.70;99.90;;;;;;5127075;27;20177;-72
2023/03/05 08:19:04;;;;;;;8.10;5.27;;;6.90;99.90;;;;;;5110598;27;20276;-72
2023/03/05 08:21:34;;;;;;;11.77;6.03;;;6.90;99.90;;;;;;5125961;27;20280;-72
2023/03/05 08:24:06;;;;;;;9.67;5.20;;;7.10;99.90;;;;;;5129031;27;20192;-72
2023/03/05 08:26:35;;;;;;;6.33;5.10;;;7.10;99.90;;;;;;5135280;27;20147;-71
2023/03/05 08:29:02;;;;;;;8.30;5.27;;;7.00;99.90;;;;;;5111636;27;20176;-72
2023/03/05 08:31:29;;;;;;;8.20;5.37;;;7.10;99.90;;;;;;5135032;27;20469;-72
2023/03/05 08:33:56;;;;;;;6.80;4.57;;;7.10;99.90;;;;;;5124396;27;20563;-72
2023/03/05 08:36:21;;;;;;;7.47;4.67;;;7.20;99.90;;;;;;5123686;27;20165;-72
2023/03/05 08:38:49;;;;;;;9.17;4.57;;;7.30;99.90;;;;;;5134769;27;20596;-72
2023/03/05 08:41:16;;;;;;;8.53;4.07;;;7.30;99.90;;;;;;5131758;27;20228;-73
2023/03/05 08:43:42;;;;;;;7.10;4.40;;;7.40;99.90;;;;;;5107592;27;20161;-72
2023/03/05 08:46:10;;;;;;;6.17;4.40;;;7.50;99.90;;;;;;5102925;28;20238;-73
2023/03/05 08:48:37;;;;;;;9.53;3.90;;;7.50;99.90;;;;;;5130437;27;20199;-73
2023/03/05 08:51:11;;;;;;;5.47;3.90;;;7.60;99.90;;;;;;5126023;27;20178;-72
2023/03/05 08:53:37;;;;;;;5.80;3.73;;;7.60;99.90;;;;;;5104940;27;20734;-73
2023/03/05 08:56:03;;;;;;;5.33;4.00;;;7.60;99.90;;;;;;5134368;27;20256;-73
2023/03/05 08:58:30;;;;;;;6.43;3.90;;;7.60;99.90;;;;;;5115821;27;20532;-72
2023/03/05 09:00:57;;;;;;;9.23;4.23;;;7.50;99.90;;;;;;5121123;27;20293;-72
2023/03/05 09:03:22;;;;;;;6.83;4.00;;;7.30;99.90;;;;;;5128317;27;20251;-73
2023/03/05 09:05:48;;;;;;;6.83;4.27;;;7.10;99.90;;;;;;5131339;27;20298;-72
2023/03/05 09:08:14;;;;;;;6.77;4.20;;;7.00;99.90;;;;;;5120780;27;20178;-72
2023/03/05 09:10:42;;;;;;;5.73;3.80;;;7.00;99.90;;;;;;5113089;28;20177;-72
2023/03/05 09:13:08;;;;;;;4.93;3.50;;;7.00;99.90;;;;;;5112362;28;20165;-72
2023/03/05 09:15:35;;;;;;;7.53;4.13;;;7.10;99.90;;;;;;5124235;27;20160;-73
2023/03/05 09:18:01;;;;;;;6.20;4.60;;;7.00;99.90;;;;;;5124071;27;20180;-72
2023/03/05 09:20:27;;;;;;;8.90;4.53;;;6.80;99.90;;;;;;5132851;27;20249;-73
2023/03/05 09:22:53;;;;;;;7.03;4.50;;;6.80;99.90;;;;;;5116249;27;20243;-72
2023/03/05 09:25:18;;;;;;;8.57;4.70;;;6.90;99.90;;;;;;5094688;28;20173;-73
2023/03/05 09:27:44;;;;;;;8.13;4.97;;;6.90;99.90;;;;;;5095264;28;20482;-73
2023/03/05 09:30:12;;;;;;;8.83;5.53;;;7.00;99.90;;;;;;5113563;28;20198;-73
2023/03/05 09:32:38;;;;;;;5.87;4.70;;;6.90;99.90;;;;;;5113666;28;20213;-72
2023/03/05 09:35:04;;;;;;;6.30;4.70;;;6.60;99.90;;;;;;5130984;27;20179;-71
2023/03/05 09:37:30;;;;;;;6.97;4.67;;;6.40;99.90;;;;;;5115569;28;20170;-74
2023/03/05 09:39:56;;;;;;;6.93;4.60;;;6.30;99.90;;;;;;5134360;27;20666;-73
2023/03/05 09:42:27;;;;;;;9.03;4.60;;;6.30;99.90;;;;;;5151940;27;20559;-73
2023/03/05 09:45:02;;;;;;;5.30;3.70;;;6.20;99.90;;;;;;5136400;27;20171;-72
2023/03/05 09:47:56;;;;;;;5.33;4.30;;;6.40;99.90;;;;;;5143548;27;20180;-73
2023/03/05 09:50:53;;;;;;;4.03;3.03;;;6.40;99.90;;;;;;5112877;28;20168;-71
2023/03/05 09:53:36;;;;;;;4.37;3.27;;;6.50;99.90;;;;;;5094678;28;20264;-73
2023/03/05 09:56:21;;;;;;;3.83;3.20;;;6.60;99.90;;;;;;5112947;28;20165;-72
2023/03/05 09:58:57;;;;;;;3.80;2.50;;;6.70;99.90;;;;;;5112940;28;20156;-73
2023/03/05 10:01:38;;;;;;;4.57;3.20;;;6.80;99.90;;;;;;5112894;28;20197;-73
2023/03/05 10:04:17;;;;;;;7.57;2.87;;;6.90;99.90;;;;;;5120245;28;20188;-73
2023/03/05 10:07:07;;;;;;;4.33;2.77;;;7.10;99.90;;;;;;5132000;28;20176;-72
2023/03/05 10:09:54;;;;;;;3.63;2.37;;;7.30;99.90;;;;;;5108795;28;20198;-72
2023/03/05 10:12:31;;;;;;;3.80;2.90;;;7.40;99.90;;;;;;5114300;28;20256;-73
2023/03/05 10:14:59;;;;;;;5.13;2.83;;;7.50;99.90;;;;;;5113591;28;20180;-72
2023/03/05 10:17:40;;;;;;;4.87;3.50;;;7.50;99.90;;;;;;5094798;28;20162;-73
2023/03/05 10:20:14;;;;;;;6.10;4.27;;;7.30;99.90;;;;;;5112681;28;20268;-73
2023/03/05 10:23:15;;;;;;;6.43;4.30;;;7.20;99.90;;;;;;5128935;28;20169;-72
2023/03/05 10:26:01;;;;;;;6.90;4.67;;;7.30;99.90;;;;;;5115117;28;20165;-73
2023/03/05 10:28:42;;;;;;;6.53;4.40;;;7.10;99.90;;;;;;5118768;28;20174;-71
2023/03/05 10:31:20;;;;;;;6.63;4.30;;;6.80;99.90;;;;;;5112712;28;20161;-72
2023/03/05 10:33:52;;;;;;;5.73;3.80;;;6.70;99.90;;;;;;5113016;28;20173;-72
2023/03/05 10:36:23;;;;;;;7.83;2.63;;;6.50;99.90;;;;;;5113921;28;20158;-71
2023/03/05 10:38:48;;;;;;;5.87;2.90;;;6.50;99.90;;;;;;5134096;27;20173;-71
2023/03/05 10:41:35;;;;;;;3.00;1.87;;;6.60;99.90;;;;;;5117335;27;20624;-71
2023/03/05 10:44:20;;;;;;;2.07;1.50;;;6.70;99.90;;;;;;5116504;28;20150;-71
2023/03/05 10:46:48;;;;;;;4.27;2.03;;;6.70;99.90;;;;;;5116456;28;20170;-71
2023/03/05 10:49:27;;;;;;;3.07;1.70;;;6.80;99.90;;;;;;5116616;28;20165;-71
2023/03/05 10:52:05;;;;;;;3.70;2.57;;;6.90;99.90;;;;;;5116423;28;20190;-72
2023/03/05 10:54:34;;;;;;;3.10;1.90;;;7.30;99.90;;;;;;5098483;28;20172;-71
2023/03/05 10:57:14;;;;;;;2.60;1.80;;;7.30;99.90;;;;;;5097648;28;20178;-70
2023/03/05 11:00:00;;;;;;;3.73;2.43;;;7.30;99.90;;;;;;5098245;28;20169;-71
2023/03/05 11:02:27;;;;;;;4.03;2.73;;;7.40;99.90;;;;;;5120310;27;20189;-71
2023/03/05 11:04:53;;;;;;;5.93;3.93;;;7.40;99.90;;;;;;5107442;27;20199;-72
2023/03/05 11:07:19;;;;;;;8.47;5.33;;;7.60;99.90;;;;;;5136722;27;20169;-72
2023/03/05 11:10:02;;;;;;;7.63;4.60;;;7.80;99.90;;;;;;5137091;27;20225;-71
2023/03/05 11:12:34;;;;;;;7.30;3.80;;;7.50;99.90;;;;;;5136703;27;20172;-71
2023/03/05 11:15:09;;;;;;;7.87;4.73;;;7.60;99.90;;;;;;5136741;27;20248;-70
2023/03/05 11:17:38;;;;;;;6.33;4.20;;;7.50;99.90;;;;;;5136575;27;20188;-72
2023/03/05 11:20:22;;;;;;;5.43;3.97;;;7.70;99.90;;;;;;5136307;27;20261;-70
2023/03/05 11:23:03;;;;;;;7.17;3.63;;;8.00;99.90;;;;;;5136540;27;20168;-71
2023/03/05 11:25:30;;;;;;;6.10;3.47;;;8.00;99.90;;;;;;5136409;27;20567;-70
2023/03/05 11:27:57;;;;;;;7.33;3.20;;;8.00;99.90;;;;;;5110246;28;20177;-72
2023/03/05 11:30:33;;;;;;;5.30;3.13;;;8.20;99.90;;;;;;5115367;28;20561;-71
2023/03/05 11:33:19;;;;;;;4.50;2.80;;;8.30;99.90;;;;;;5115720;28;20165;-72
2023/03/05 11:35:46;;;;;;;4.17;2.40;;;8.60;99.90;;;;;;5131105;27;20230;-71
2023/03/05 11:38:24;;;;;;;3.90;2.93;;;8.90;99.90;;;;;;5131307;27;20173;-72
2023/03/05 11:40:52;;;;;;;3.33;1.90;;;9.00;99.90;;;;;;5135998;27;20200;-72
2023/03/05 11:43:20;;;;;;;6.30;4.70;;;8.90;99.90;;;;;;5107949;28;20170;-70
2023/03/05 11:46:02;;;;;;;4.07;2.37;;;9.00;99.90;;;;;;5096870;28;20170;-72
2023/03/05 11:48:42;;;;;;;7.07;2.67;;;8.80;99.90;;;;;;5114584;28;20158;-71
2023/03/05 11:51:16;;;;;;;3.93;2.33;;;8.90;99.90;;;;;;5097041;28;20205;-70
2023/03/05 11:53:45;;;;;;;8.30;7.60;;;9.00;99.90;;;;;;5115551;28;20165;-72
2023/03/05 11:56:19;;;;;;;7.10;4.73;;;9.20;99.90;;;;;;5131177;27;20625;-72
2023/03/05 11:59:00;;;;;;;5.17;2.70;;;9.20;99.90;;;;;;5135655;27;20194;-71
2023/03/05 12:01:29;;;;;;;4.27;2.97;;;9.30;99.90;;;;;;5135512;27;20191;-73
2023/03/05 12:03:55;;;;;;;7.40;3.77;;;9.00;99.90;;;;;;5135641;27;20626;-71
2023/03/05 12:06:27;;;;;;;5.13;3.70;;;8.90;99.90;;;;;;5135311;27;20173;-71
2023/03/05 12:08:58;;;;;;;6.07;3.73;;;8.80;99.90;;;;;;5135355;27;20320;-71
2023/03/05 12:11:30;;;;;;;5.23;3.80;;;8.80;99.90;;;;;;5135570;27;20157;-72
2023/03/05 12:14:03;;;;;;;7.70;4.40;;;8.90;99.90;;;;;;5135315;27;20242;-71
2023/03/05 12:16:56;;;;;;;6.17;4.70;;;8.80;99.90;;;;;;5135493;27;20150;-71
2023/03/05 12:19:30;;;;;;;8.43;5.47;;;8.80;99.90;;;;;;5116989;27;20199;-72
2023/03/05 12:21:57;;;;;;;12.17;7.20;;;8.90;99.90;;;;;;5117175;27;20253;-72
2023/03/05 12:24:23;;;;;;;8.87;6.93;;;9.00;99.90;;;;;;5116768;27;20268;-72
2023/03/05 12:26:51;;;;;;;12.67;8.03;;;9.10;99.90;;;;;;5135206;27;20188;-73
2023/03/05 12:29:48;;;;;;;10.73;6.60;;;8.80;99.90;;;;;;5135204;27;20529;-73
2023/03/05 12:32:34;;;;;;;14.30;9.00;;;8.60;99.90;;;;;;5122824;27;20618;-72
2023/03/05 12:35:26;;;;;;;17.97;12.73;;;8.50;99.90;;;;;;5103200;28;20704;-72
2023/03/05 12:37:52;;;;;;;10.43;8.33;;;8.50;99.90;;;;;;5114601;27;20169;-70
2023/03/05 12:40:32;;;;;;;8.07;6.53;;;8.30;99.90;;;;;;5134259;27;20665;-72
2023/03/05 12:43:03;;;;;;;8.43;6.37;;;8.20;99.90;;;;;;5134574;27;20160;-70
2023/03/05 12:45:41;;;;;;;7.07;5.93;;;8.00;99.90;;;;;;5116252;27;20245;-71
2023/03/05 12:48:11;;;;;;;10.87;7.37;;;7.60;99.90;;;;;;5134647;27;20176;-72
2023/03/05 12:50:36;;;;;;;9.33;6.97;;;7.30;99.90;;;;;;5110267;27;20221;-71
2023/03/05 12:53:17;;;;;;;9.30;6.63;;;7.10;99.90;;;;;;5127274;27;20179;-70
2023/03/05 12:55:44;;;;;;;9.43;6.67;;;7.00;99.90;;;;;;5113862;28;20260;-71
2023/03/05 12:58:28;;;;;;;11.43;7.30;;;6.90;99.90;;;;;;5113124;28;20566;-72
2023/03/05 13:01:10;;;;;;;10.17;6.60;;;7.00;99.90;;;;;;5099682;27;20215;-71
2023/03/05 13:03:43;;;;;;;8.63;6.73;;;7.10;99.90;;;;;;5097149;28;20182;-71